Davis, South Dakota
Current Conditions -  °F | °C
As of 3:56 PM on Friday 24 Oct 2014 (Local Time) from KFSD Reporting Station
Overcast Overcast  
Wind Chill: 75°   Ceiling: 23000
Heat Index: 75°   Visibility: 10mi
Dew Point: 38°   Wind: 10mph
Humidity: 26%   Direction: 320°NW
Pressure: 29.88"   Gusts: NA
Location:  43.26°N, 97°W
Report Text: KFSD 242056Z 32009KT 10SM OVC230 24/03 A2988 RMK AO2 SLP116 T02390033 55006
Loading
Personal Weather Stations






























Interactive Weather Map
Tropical Storm Tracking
New forecast layout! Learn more

10-Day Weather Forecast

Advertisements
Track Severe Weather on mobile